Time;durP1;ratioP1;P1;durP2;ratioP2;P2;SDS_P1;SDS_P2;PMS_P1;PMS_P2;Temp;Humidity;BMP_temperature;BMP_pressure;BME280_temperature;BME280_humidity;BME280_pressure;Samples;Min_cycle;Max_cycle;Signal;HPM_P1;HPM_P2
2020/12/01 00:00:44;;;;;;;;;49.20;39.00;;;;;9.25;40.72;99391.69;6219302;28;97388;-58
2020/12/01 00:03:46;;;;;;;;;51.00;38.00;;;;;9.26;40.61;99395.19;6230193;28;97380;-58
2020/12/01 00:06:47;;;;;;;;;51.00;39.25;;;;;9.27;39.94;99386.94;6229183;28;97448;-57
2020/12/01 00:09:49;;;;;;;;;45.00;37.25;;;;;9.23;39.74;99382.16;6218596;28;97126;-58
2020/12/01 00:12:50;;;;;;;;;44.25;36.00;;;;;9.19;39.89;99388.97;6223426;28;96499;-57
2020/12/01 00:15:52;;;;;;;;;46.20;36.60;;;;;9.14;39.84;99386.84;6223543;28;98444;-57
2020/12/01 00:18:53;;;;;;;;;46.80;36.00;;;;;9.14;40.28;99382.31;6226681;28;97423;-57
2020/12/01 00:21:54;;;;;;;;;43.40;35.00;;;;;9.13;40.10;99382.53;6232441;28;97524;-57
2020/12/01 00:24:56;;;;;;;;;45.60;36.60;;;;;9.13;40.58;99382.53;6231414;28;97165;-57
2020/12/01 00:27:57;;;;;;;;;45.00;36.00;;;;;9.14;40.28;99386.84;6232166;28;97385;-57
2020/12/01 00:30:59;;;;;;;;;42.60;33.00;;;;;9.16;39.98;99394.75;6226922;28;96626;-57
2020/12/01 00:34:00;;;;;;;;;43.25;35.75;;;;;9.06;39.39;99389.72;6223758;28;96973;-57
2020/12/01 00:37:04;;;;;;;;;39.80;32.20;;;;;9.12;40.08;99378.19;6232576;27;97358;-57
2020/12/01 00:40:07;;;;;;;;;36.00;32.00;;;;;9.14;39.74;99392.25;6231576;28;96883;-57
2020/12/01 00:43:08;;;;;;;;;37.00;32.00;;;;;9.14;40.16;99397.63;6232048;28;96769;-57
2020/12/01 00:46:09;;;;;;;;;39.60;33.00;;;;;8.86;39.88;99351.16;6232401;28;97440;-57
2020/12/01 00:49:11;;;;;;;;;39.75;32.75;;;;;9.10;40.02;99391.81;6231221;28;96450;-58
2020/12/01 00:52:14;;;;;;;;;39.80;31.20;;;;;9.08;39.72;99383.13;6205503;28;98441;-57
2020/12/01 00:55:16;;;;;;;;;40.40;32.00;;;;;9.09;39.86;99374.00;6228832;28;97398;-57
2020/12/01 00:58:18;;;;;;;;;39.25;31.75;;;;;9.10;39.70;99380.22;6198814;28;96535;-57
2020/12/01 01:01:40;;;;;;;;;37.00;33.00;;;;;9.04;39.94;99375.66;6218237;28;96940;-57
2020/12/01 01:04:42;;;;;;;;;41.00;35.00;;;;;8.95;39.89;99377.66;6211901;28;98510;-57
2020/12/01 01:07:44;;;;;;;;;44.00;34.00;;;;;8.88;40.01;99376.00;6233482;28;97425;-57
2020/12/01 01:10:45;;;;;;;;;41.00;32.00;;;;;8.87;39.89;99372.47;6228587;28;97543;-57
2020/12/01 01:13:46;;;;;;;;;39.00;33.00;;;;;8.88;39.77;99373.31;6220990;28;96728;-57
2020/12/01 01:16:48;;;;;;;;;39.50;30.50;;;;;8.88;39.81;99371.44;6208986;28;97411;-57
2020/12/01 01:19:49;;;;;;;;;38.60;32.60;;;;;8.89;39.90;99366.91;6233414;28;98078;-57
2020/12/01 01:22:51;;;;;;;;;39.50;32.50;;;;;8.86;39.86;99364.59;6233092;28;97001;-57
2020/12/01 01:25:52;;;;;;;;;36.40;30.40;;;;;8.48;40.16;99348.03;6233007;28;97234;-57
2020/12/01 01:28:54;;;;;;;;;34.00;29.60;;;;;8.56;40.44;99348.72;6218413;28;97536;-57
2020/12/01 01:31:56;;;;;;;;;41.00;34.50;;;;;8.61;40.57;99343.56;6225878;28;97519;-57
2020/12/01 01:34:57;;;;;;;;;37.00;32.00;;;;;8.67;41.00;99341.97;6233328;28;97058;-58
2020/12/01 01:37:58;;;;;;;;;35.00;30.00;;;;;8.66;40.80;99337.59;6222747;28;96869;-57
2020/12/01 01:41:00;;;;;;;;;40.00;32.80;;;;;8.68;40.48;99336.41;6232094;28;97427;-57
2020/12/01 01:44:02;;;;;;;;;39.20;32.40;;;;;8.23;40.39;99296.59;6229656;28;98484;-57
2020/12/01 01:47:20;;;;;;;;;40.00;32.20;;;;;8.53;40.45;99337.53;6215653;27;97482;-57
2020/12/01 01:50:22;;;;;;;;;33.80;30.20;;;;;8.61;40.44;99335.50;6237622;27;99092;-58
2020/12/01 01:53:23;;;;;;;;;33.00;29.60;;;;;8.65;40.25;99326.00;6237967;28;97545;-57
2020/12/01 01:56:29;;;;;;;;;30.80;28.80;;;;;8.66;40.08;99335.75;6237558;28;97908;-58
2020/12/01 01:59:31;;;;;;;;;27.80;26.60;;;;;8.62;39.94;99320.22;6238440;28;98518;-57
2020/12/01 02:02:32;;;;;;;;;35.00;31.00;;;;;8.65;40.03;99326.00;6235822;28;98544;-57
2020/12/01 02:05:34;;;;;;;;;29.40;25.40;;;;;8.43;39.85;99280.63;6229748;28;97020;-57
2020/12/01 02:08:35;;;;;;;;;29.50;27.00;;;;;8.71;39.72;99316.34;6227668;28;96943;-58
2020/12/01 02:11:40;;;;;;;;;30.00;27.00;;;;;8.68;39.69;99322.94;6232668;28;96644;-58
2020/12/01 02:14:49;;;;;;;;;29.00;24.50;;;;;8.52;39.42;99317.06;6233091;28;97157;-58
2020/12/01 02:17:50;;;;;;;;;29.25;28.25;;;;;8.33;39.72;99315.09;6236994;28;98494;-57
2020/12/01 02:20:52;;;;;;;;;26.00;24.00;;;;;8.39;40.04;99309.75;6235746;28;97424;-57
2020/12/01 02:23:54;;;;;;;;;29.50;26.00;;;;;8.23;40.05;99277.78;6218914;28;97452;-57
2020/12/01 02:26:59;;;;;;;;;33.40;29.40;;;;;8.36;40.02;99304.75;6220971;28;97212;-57
2020/12/01 02:30:00;;;;;;;;;28.67;24.67;;;;;8.20;40.17;99305.06;6234543;28;97423;-57
2020/12/01 02:33:02;;;;;;;;;28.50;24.50;;;;;8.07;40.27;99304.94;6223746;28;97607;-57
2020/12/01 02:36:03;;;;;;;;;30.25;25.00;;;;;7.96;40.28;99306.34;6225308;28;98445;-57
2020/12/01 02:39:06;;;;;;;;;28.00;25.00;;;;;7.67;40.10;99252.81;6232312;27;97152;-58
2020/12/01 02:42:14;;;;;;;;;27.00;26.00;;;;;7.87;40.36;99304.00;6225769;28;96816;-57
2020/12/01 02:45:15;;;;;;;;;24.20;22.00;;;;;7.78;40.57;99309.47;6234851;28;97394;-57
2020/12/01 02:48:16;;;;;;;;;25.60;23.00;;;;;7.66;40.37;99308.34;6211648;28;98381;-57
2020/12/01 02:51:18;;;;;;;;;25.50;22.00;;;;;7.60;40.53;99303.75;6223026;28;96754;-57
2020/12/01 02:54:19;;;;;;;;;27.00;23.75;;;;;7.55;40.75;99310.72;6237376;28;96623;-57
2020/12/01 02:57:21;;;;;;;;;29.50;25.00;;;;;7.58;40.57;99300.41;6238364;28;97408;-57
2020/12/01 03:00:22;;;;;;;;;23.50;21.00;;;;;7.46;40.19;99263.56;6236065;27;97444;-57
2020/12/01 03:03:24;;;;;;;;;28.67;24.67;;;;;7.66;40.09;99286.06;6237290;28;97091;-57
2020/12/01 03:06:25;;;;;;;;;26.20;24.80;;;;;7.67;39.80;99299.25;6222388;28;96666;-57
2020/12/01 03:09:27;;;;;;;;;27.00;24.60;;;;;7.60;39.98;99295.69;6237387;28;99014;-57
2020/12/01 03:12:30;;;;;;;;;24.60;21.60;;;;;7.46;40.03;99290.41;6237039;28;97378;-57
2020/12/01 03:15:32;;;;;;;;;24.00;20.60;;;;;7.44;40.28;99312.03;6236538;28;97230;-57
2020/12/01 03:18:39;;;;;;;;;25.40;23.40;;;;;7.26;40.30;99309.81;6236670;28;96975;-57
2020/12/01 03:21:40;;;;;;;;;27.00;24.00;;;;;7.29;40.07;99295.16;6209046;28;99577;-57
2020/12/01 03:24:42;;;;;;;;;23.00;21.60;;;;;6.95;40.07;99250.25;6236952;28;96649;-57
2020/12/01 03:27:43;;;;;;;;;21.00;19.20;;;;;7.26;39.96;99283.00;6232841;28;96530;-57
2020/12/01 03:30:44;;;;;;;;;21.60;20.60;;;;;7.12;40.01;99281.19;6223375;28;96669;-57
2020/12/01 03:33:47;;;;;;;;;21.00;19.40;;;;;7.04;40.15;99289.34;6230443;28;97109;-57
2020/12/01 03:36:48;;;;;;;;;20.00;19.00;;;;;7.08;39.91;99276.41;6221010;28;97111;-57
2020/12/01 03:39:50;;;;;;;;;23.00;20.00;;;;;6.90;39.94;99252.69;6236354;28;97430;-57
2020/12/01 03:42:51;;;;;;;;;23.50;22.00;;;;;7.03;39.96;99285.00;6224123;28;97630;-57
2020/12/01 03:45:53;;;;;;;;;20.00;18.00;;;;;6.95;40.05;99280.59;6234819;28;97119;-57
2020/12/01 03:48:58;;;;;;;;;17.75;14.00;;;;;6.86;40.02;99287.06;6215377;28;96926;-57
2020/12/01 03:51:59;;;;;;;;;23.20;20.60;;;;;6.72;40.20;99279.06;6224020;28;97586;-57
2020/12/01 03:55:00;;;;;;;;;18.60;17.60;;;;;6.79;40.11;99277.31;6233927;28;96675;-57
2020/12/01 03:58:02;;;;;;;;;21.40;20.00;;;;;6.90;40.08;99282.16;6206633;28;96945;-57
2020/12/01 04:01:03;;;;;;;;;20.20;18.20;;;;;6.82;40.39;99280.44;6228912;28;98801;-57
2020/12/01 04:04:04;;;;;;;;;15.50;15.00;;;;;6.76;39.94;99277.66;6235099;28;97142;-57
2020/12/01 04:07:06;;;;;;;;;18.00;16.00;;;;;6.77;40.25;99276.66;6220508;28;98492;-57
2020/12/01 04:10:08;;;;;;;;;19.20;17.20;;;;;6.72;40.06;99274.53;6215232;27;97311;-57
2020/12/01 04:13:09;;;;;;;;;21.00;18.00;;;;;6.64;40.25;99255.91;6230231;28;97417;-57
2020/12/01 04:16:13;;;;;;;;;19.00;16.20;;;;;6.80;39.91;99274.41;6233436;28;97384;-58
2020/12/01 04:19:15;;;;;;;;;20.40;17.20;;;;;6.79;39.91;99258.56;6235453;28;98447;-58
2020/12/01 04:22:16;;;;;;;;;22.75;18.00;;;;;6.92;39.95;99272.94;6232439;28;97010;-58
2020/12/01 04:25:22;;;;;;;;;23.40;20.40;;;;;6.94;40.00;99272.72;6229300;28;98657;-58
2020/12/01 04:28:23;;;;;;;;;20.40;18.40;;;;;6.99;39.76;99262.25;6234672;28;97472;-58
2020/12/01 04:31:25;;;;;;;;;19.00;18.25;;;;;7.06;39.67;99259.66;6221516;28;97700;-58
2020/12/01 04:34:26;;;;;;;;;20.00;18.00;;;;;6.91;39.75;99219.50;6224713;28;96785;-58
2020/12/01 04:37:28;;;;;;;;;19.00;18.00;;;;;7.20;39.80;99262.28;6230092;28;97477;-58
2020/12/01 04:40:32;;;;;;;;;19.40;17.40;;;;;7.18;39.52;99266.19;6227503;28;97891;-58
2020/12/01 04:43:41;;;;;;;;;20.60;18.00;;;;;7.18;39.72;99264.34;6220461;28;97386;-58
2020/12/01 04:46:43;;;;;;;;;21.20;18.20;;;;;7.20;39.89;99267.66;6234120;28;96663;-58
2020/12/01 04:49:54;;;;;;;;;23.00;20.00;;;;;7.23;39.64;99264.59;6234467;28;98462;-58
2020/12/01 04:52:56;;;;;;;;;19.60;18.20;;;;;7.21;39.80;99266.63;6218720;28;98184;-58
2020/12/01 04:56:34;;;;;;;;;24.40;22.40;;;;;7.19;39.74;99271.34;6233270;28;96528;-58
2020/12/01 05:00:12;;;;;;;;;21.00;17.00;;;;;7.19;39.60;99270.50;6218205;28;96615;-58
2020/12/01 05:03:36;;;;;;;;;17.75;17.00;;;;;7.16;39.46;99279.78;6224405;28;96726;-58
2020/12/01 05:10:02;;;;;;;;;22.75;19.75;;;;;7.14;39.42;99259.53;6230302;28;97848;-58
2020/12/01 05:13:16;;;;;;;;;23.00;19.60;;;;;7.05;39.16;99248.09;6230292;28;97237;-58
2020/12/01 05:16:33;;;;;;;;;21.50;18.75;;;;;7.12;39.62;99265.09;6215567;28;97285;-58
2020/12/01 05:19:40;;;;;;;;;21.40;19.60;;;;;6.84;39.56;99229.34;6220211;28;98399;-58
2020/12/01 05:22:52;;;;;;;;;19.00;17.40;;;;;7.01;39.29;99251.34;6233845;27;97568;-58
2020/12/01 05:25:58;;;;;;;;;21.50;19.00;;;;;6.92;39.11;99256.84;6227496;28;96576;-58
2020/12/01 05:29:00;;;;;;;;;18.80;16.80;;;;;6.89;38.96;99253.72;6226509;28;97438;-58
2020/12/01 05:32:01;;;;;;;;;20.40;19.00;;;;;6.96;39.00;99257.28;6235874;27;97429;-58
2020/12/01 05:35:16;;;;;;;;;18.50;17.00;;;;;6.90;39.16;99248.16;6233704;28;97532;-58
2020/12/01 05:38:19;;;;;;;;;22.40;20.00;;;;;6.79;39.54;99251.31;6233488;28;97268;-58
2020/12/01 05:41:31;;;;;;;;;24.60;21.00;;;;;6.78;39.69;99259.56;6230596;27;97688;-58
2020/12/01 05:44:34;;;;;;;;;20.60;18.60;;;;;6.59;39.93;99247.59;6224515;28;96852;-58
2020/12/01 05:47:43;;;;;;;;;18.20;17.20;;;;;6.46;40.14;99231.34;6217082;28;97200;-58
2020/12/01 05:50:55;;;;;;;;;21.00;20.00;;;;;6.53;40.06;99233.09;6219223;27;98447;-58
2020/12/01 05:53:59;;;;;;;;;24.00;22.00;;;;;6.64;40.22;99268.47;6220808;28;96698;-58
2020/12/01 05:57:02;;;;;;;;;21.60;19.80;;;;;6.55;39.79;99240.94;6232876;28;98019;-58
2020/12/01 06:00:22;;;;;;;;;20.20;18.80;;;;;6.53;39.63;99259.06;6218488;28;97230;-58
2020/12/01 06:03:29;;;;;;;;;21.80;21.40;;;;;6.56;39.62;99244.44;6223273;27;97186;-58
2020/12/01 06:06:44;;;;;;;;;25.60;22.60;;;;;6.61;39.72;99245.53;6197274;28;97057;-58
2020/12/01 06:10:23;;;;;;;;;21.60;20.00;;;;;6.56;39.75;99244.44;6217578;28;96733;-58
2020/12/01 06:13:34;;;;;;;;;21.80;20.40;;;;;6.59;39.47;99255.63;6230652;28;96745;-58
2020/12/01 06:16:41;;;;;;;;;19.20;17.20;;;;;6.60;39.38;99254.59;6221811;27;97486;-58
2020/12/01 06:19:58;;;;;;;;;23.00;21.00;;;;;6.59;39.87;99247.59;6231380;28;97730;-58
2020/12/01 06:23:34;;;;;;;;;22.00;20.75;;;;;6.55;39.79;99251.66;6231590;28;96516;-58
2020/12/01 06:27:02;;;;;;;;;25.00;22.00;;;;;6.53;40.08;99251.84;6227492;28;98498;-57
2020/12/01 06:30:12;;;;;;;;;23.00;21.00;;;;;6.59;39.49;99257.47;6219216;28;96739;-58
2020/12/01 06:33:38;;;;;;;;;25.00;21.00;;;;;5.84;39.80;99130.03;6227619;27;97597;-58
2020/12/01 06:37:08;;;;;;;;;21.75;21.00;;;;;6.63;39.66;99248.88;6230984;28;97614;-58
2020/12/01 06:40:29;;;;;;;;;22.40;19.60;;;;;6.71;39.47;99251.44;6233493;28;97267;-58
2020/12/01 06:43:38;;;;;;;;;23.50;21.00;;;;;6.77;39.23;99253.38;6234893;28;98093;-58
2020/12/01 06:46:43;;;;;;;;;23.00;19.40;;;;;6.85;39.06;99258.59;6235659;28;97407;-58
2020/12/01 06:49:44;;;;;;;;;20.20;18.60;;;;;6.92;38.37;99250.66;6234173;28;98149;-58
2020/12/01 06:52:57;;;;;;;;;23.40;21.40;;;;;7.03;38.41;99244.81;6223087;27;96989;-58
2020/12/01 06:56:19;;;;;;;;;19.00;19.00;;;;;7.16;38.06;99247.63;6216503;28;97539;-58
2020/12/01 06:59:20;;;;;;;;;19.25;19.00;;;;;7.26;38.12;99242.75;6236636;28;98620;-58
2020/12/01 07:02:22;;;;;;;;;19.00;18.00;;;;;7.35;38.26;99241.59;6236497;28;96808;-58
2020/12/01 07:05:32;;;;;;;;;21.40;20.00;;;;;7.51;38.20;99237.00;6241899;27;97445;-58
2020/12/01 07:08:33;;;;;;;;;21.00;19.00;;;;;7.72;37.87;99242.34;6240327;27;98015;-58
2020/12/01 07:12:05;;;;;;;;;19.00;17.40;;;;;8.91;36.72;99241.97;6212240;28;97465;-58
2020/12/01 07:15:14;;;;;;;;;21.00;19.00;;;;;11.05;32.73;99217.84;6184649;28;97468;-59
2020/12/01 07:18:28;;;;;;;;;20.75;17.00;;;;;13.05;29.88;99233.59;6234916;28;97948;-59
2020/12/01 07:21:50;;;;;;;;;20.00;18.00;;;;;14.63;27.42;99237.25;6236388;28;97463;-59
2020/12/01 07:25:00;;;;;;;;;17.60;16.60;;;;;15.72;25.41;99229.84;6236411;28;97847;-58
2020/12/01 07:28:26;;;;;;;;;21.00;19.00;;;;;16.83;24.18;99238.81;6235511;28;97457;-59
2020/12/01 07:31:34;;;;;;;;;20.00;18.00;;;;;17.81;23.28;99240.41;6236150;28;97615;-60
2020/12/01 07:34:35;;;;;;;;;20.60;18.60;;;;;18.43;22.31;99216.00;6235231;28;97796;-59
2020/12/01 07:37:51;;;;;;;;;22.60;20.60;;;;;19.29;21.60;99240.16;6235528;28;97493;-60
2020/12/01 07:41:25;;;;;;;;;20.00;18.00;;;;;20.00;20.57;99249.28;6218423;28;98764;-61
2020/12/01 07:44:39;;;;;;;;;22.00;19.00;;;;;20.67;19.91;99240.69;6235184;28;97124;-60
2020/12/01 07:47:41;;;;;;;;;21.80;19.80;;;;;21.19;19.18;99236.69;6230012;28;98530;-59
2020/12/01 07:50:42;;;;;;;;;21.25;17.50;;;;;21.80;18.49;99250.81;6234634;28;96518;-60
2020/12/01 07:53:44;;;;;;;;;19.00;17.00;;;;;22.30;18.08;99244.09;6234653;28;98168;-61
2020/12/01 07:56:45;;;;;;;;;22.00;17.00;;;;;22.69;17.57;99243.97;6234515;28;97185;-60
2020/12/01 07:59:49;;;;;;;;;22.50;19.75;;;;;22.99;17.68;99228.25;6234069;28;97290;-60
2020/12/01 08:03:03;;;;;;;;;19.00;18.00;;;;;23.57;17.15;99250.84;6228932;28;97569;-61
2020/12/01 08:06:07;;;;;;;;;19.40;18.40;;;;;23.80;16.00;99249.16;6222938;27;96962;-60
2020/12/01 08:09:11;;;;;;;;;18.00;17.00;;;;;23.87;16.01;99202.75;6230767;28;97875;-61
2020/12/01 08:12:15;;;;;;;;;23.60;21.00;;;;;24.17;15.57;99249.91;6234194;28;96477;-60
2020/12/01 08:15:20;;;;;;;;;22.75;20.25;;;;;24.24;15.67;99244.00;6231689;28;98475;-61
2020/12/01 08:18:22;;;;;;;;;17.00;16.60;;;;;24.35;15.52;99250.97;6213609;28;97118;-60
2020/12/01 08:21:36;;;;;;;;;20.40;19.00;;;;;24.72;15.43;99250.00;6231761;28;97370;-61
2020/12/01 08:24:42;;;;;;;;;20.80;18.80;;;;;24.98;15.08;99245.63;6225819;28;97984;-60
2020/12/01 08:28:06;;;;;;;;;19.20;17.20;;;;;24.72;15.11;99251.94;6229860;28;97177;-60
2020/12/01 08:31:12;;;;;;;;;18.00;17.00;;;;;24.67;15.10;99252.06;6230740;28;97570;-60
2020/12/01 08:35:03;;;;;;;;;22.40;20.00;;;;;24.81;15.19;99250.94;6223945;28;98635;-60
2020/12/01 08:38:35;;;;;;;;;21.00;20.00;;;;;24.89;15.11;99253.00;6220297;28;97178;-60
2020/12/01 08:42:00;;;;;;;;;21.00;19.00;;;;;24.76;15.04;99261.25;6217309;28;98685;-60
2020/12/01 08:45:14;;;;;;;;;20.00;19.00;;;;;24.83;15.02;99256.13;6209247;28;97561;-61
2020/12/01 08:48:45;;;;;;;;;23.00;21.00;;;;;25.03;14.70;99250.22;6231975;27;98496;-61
2020/12/01 08:51:54;;;;;;;;;25.00;21.00;;;;;25.07;14.90;99251.25;6218703;28;98175;-60
2020/12/01 08:55:18;;;;;;;;;19.00;18.40;;;;;24.77;14.99;99252.69;6220876;28;97480;-60
2020/12/01 08:58:28;;;;;;;;;20.50;18.00;;;;;24.88;15.07;99248.59;6189827;28;97546;-61
2020/12/01 09:01:42;;;;;;;;;21.60;18.60;;;;;25.00;14.61;99223.28;6229221;28;97373;-60
2020/12/01 09:04:44;;;;;;;;;20.00;18.00;;;;;25.26;14.29;99245.63;6233004;28;97081;-60
2020/12/01 09:07:46;;;;;;;;;21.00;18.60;;;;;25.63;14.45;99250.03;6232316;28;96638;-61
2020/12/01 09:10:48;;;;;;;;;21.00;19.20;;;;;25.90;14.37;99252.72;6232117;28;97237;-60
2020/12/01 09:13:57;;;;;;;;;21.60;20.00;;;;;26.02;14.24;99249.38;6231736;28;96574;-60
2020/12/01 09:23:59;;;;;;;;;21.40;19.00;;;;;25.68;13.93;99248.00;6230864;28;97530;-60
2020/12/01 09:27:04;;;;;;;;;22.00;19.50;;;;;25.53;13.86;99244.72;6230423;28;96974;-61
2020/12/01 09:30:13;;;;;;;;;19.50;17.50;;;;;25.44;14.21;99237.19;6229958;28;97195;-60
2020/12/01 09:33:18;;;;;;;;;23.40;21.40;;;;;25.73;13.84;99234.06;6230547;28;96842;-60
2020/12/01 09:36:23;;;;;;;;;23.40;21.00;;;;;26.24;13.84;99238.34;6231510;28;97754;-62
2020/12/01 09:39:24;;;;;;;;;18.80;17.00;;;;;26.27;13.28;99238.53;6232122;28;98481;-60
2020/12/01 09:42:29;;;;;;;;;18.00;17.00;;;;;25.36;13.71;99234.38;6232004;28;97224;-60
2020/12/01 09:45:32;;;;;;;;;22.60;19.00;;;;;25.28;14.46;99226.78;6232113;28;96499;-60
2020/12/01 09:48:36;;;;;;;;;21.00;19.00;;;;;25.07;14.46;99233.91;6232143;28;97501;-60
2020/12/01 09:51:39;;;;;;;;;20.00;18.00;;;;;25.20;14.25;99222.84;6214993;28;97466;-60
2020/12/01 09:54:50;;;;;;;;;21.00;17.00;;;;;25.37;13.88;99198.16;6232363;28;98438;-57
2020/12/01 09:58:03;;;;;;;;;17.00;15.00;;;;;25.82;14.01;99217.53;6227298;28;97639;-59
2020/12/01 10:02:53;;;;;;;;;19.00;17.40;;;;;25.34;14.34;99217.28;6228012;28;97363;-60
2020/12/01 10:08:18;;;;;;;;;18.00;16.00;;;;;25.27;14.26;99205.84;6212581;28;97398;-59
2020/12/01 10:37:34;;;;;;;;;21.60;20.00;;;;;25.34;14.43;99206.25;6212916;28;97207;-60
2020/12/01 10:40:36;;;;;;;;;22.00;19.00;;;;;25.62;14.01;99195.94;6234915;27;97703;-59
2020/12/01 10:43:39;;;;;;;;;23.00;20.00;;;;;25.78;13.77;99203.56;6238250;27;97540;-59
2020/12/01 10:46:43;;;;;;;;;20.00;19.00;;;;;25.69;13.85;99201.88;6246097;27;96681;-59
2020/12/01 10:49:45;;;;;;;;;18.25;17.00;;;;;25.06;13.85;99155.84;6244595;27;98077;-59
2020/12/01 10:52:46;;;;;;;;;20.00;18.00;;;;;25.07;14.15;99201.59;6247682;27;97690;-60
2020/12/01 10:55:47;;;;;;;;;22.00;19.00;;;;;25.14;14.12;99202.00;6202733;27;98914;-59
2020/12/01 10:58:49;;;;;;;;;20.20;19.00;;;;;25.36;14.31;99204.00;6243309;27;97557;-59
2020/12/01 11:01:51;;;;;;;;;23.00;21.60;;;;;25.34;14.02;99173.13;6246003;27;98792;-60
2020/12/01 11:04:53;;;;;;;;;20.50;19.50;;;;;25.52;14.05;99196.97;6242789;27;97290;-60
2020/12/01 11:07:54;;;;;;;;;17.40;16.40;;;;;25.60;13.89;99206.50;6239925;27;97656;-59
2020/12/01 11:10:55;;;;;;;;;21.00;18.80;;;;;25.75;13.78;99209.72;6234230;27;97130;-60
2020/12/01 11:13:57;;;;;;;;;21.00;19.60;;;;;25.92;13.74;99205.44;6240651;27;97148;-60
2020/12/01 11:16:58;;;;;;;;;22.00;21.00;;;;;25.91;13.87;99207.38;6241273;27;97450;-60
2020/12/01 11:20:00;;;;;;;;;21.25;18.00;;;;;25.91;13.92;99212.06;6223561;27;97488;-60
2020/12/01 11:23:02;;;;;;;;;18.40;16.40;;;;;25.62;13.71;99180.19;6244829;27;96991;-60
2020/12/01 11:26:03;;;;;;;;;19.75;17.75;;;;;25.90;13.96;99202.19;6241543;27;96946;-60
2020/12/01 11:29:04;;;;;;;;;22.00;21.00;;;;;25.86;13.44;99191.75;6240908;27;96894;-60
2020/12/01 11:32:06;;;;;;;;;19.20;17.20;;;;;25.66;14.21;99166.56;6226586;27;97669;-60
2020/12/01 11:35:07;;;;;;;;;21.50;19.50;;;;;25.84;13.94;99194.03;6247113;27;97751;-58
2020/12/01 11:38:09;;;;;;;;;20.00;18.25;;;;;25.91;14.08;99190.78;6241977;27;96626;-58
2020/12/01 11:41:11;;;;;;;;;22.40;19.60;;;;;26.01;13.77;99184.19;6244457;27;97927;-60
2020/12/01 11:44:13;;;;;;;;;20.25;18.25;;;;;25.98;13.75;99187.59;6241773;27;97112;-60
2020/12/01 11:47:15;;;;;;;;;21.00;19.00;;;;;25.91;13.76;99188.03;6226181;27;97298;-61
2020/12/01 11:50:16;;;;;;;;;19.00;18.00;;;;;25.50;13.69;99179.94;6239537;27;97827;-60
2020/12/01 11:53:17;;;;;;;;;20.00;18.50;;;;;25.19;14.03;99181.75;6235194;27;97647;-59
2020/12/01 11:56:19;;;;;;;;;20.75;18.75;;;;;25.12;14.12;99181.38;6237471;27;96651;-59
2020/12/01 11:59:20;;;;;;;;;21.75;20.50;;;;;24.90;14.01;99171.06;6228789;28;96637;-61
2020/12/01 12:02:22;;;;;;;;;20.60;18.00;;;;;24.38;14.30;99172.41;6233339;28;97119;-60
2020/12/01 12:05:26;;;;;;;;;23.00;20.00;;;;;23.99;14.73;99167.31;6222706;28;96968;-59
2020/12/01 12:08:28;;;;;;;;;20.67;18.67;;;;;23.37;15.31;99166.63;6235198;28;97454;-58
2020/12/01 12:11:29;;;;;;;;;21.75;18.00;;;;;23.02;15.69;99167.97;6225042;27;97417;-59
2020/12/01 12:14:31;;;;;;;;;17.00;16.00;;;;;22.52;15.77;99147.44;6242029;27;96932;-59
2020/12/01 12:17:32;;;;;;;;;19.60;19.00;;;;;22.56;15.84;99155.91;6231921;28;97529;-59
2020/12/01 12:20:34;;;;;;;;;22.00;20.40;;;;;22.41;16.75;99154.16;6226485;28;97323;-59
2020/12/01 12:23:35;;;;;;;;;20.60;17.00;;;;;22.29;16.21;99154.56;6216371;28;97234;-59
2020/12/01 12:26:37;;;;;;;;;19.40;18.40;;;;;21.98;16.28;99158.75;6230782;28;96952;-59
2020/12/01 12:29:39;;;;;;;;;22.25;20.25;;;;;21.60;16.18;99163.16;6234845;27;97097;-60
2020/12/01 12:32:40;;;;;;;;;21.75;20.75;;;;;21.18;16.57;99163.75;6224774;27;97447;-61
2020/12/01 12:35:42;;;;;;;;;18.40;16.40;;;;;21.00;17.04;99164.38;6233066;28;96600;-60
2020/12/01 12:38:43;;;;;;;;;20.00;18.00;;;;;20.80;17.42;99162.56;6227663;28;96696;-60
2020/12/01 12:41:44;;;;;;;;;16.40;16.00;;;;;20.20;17.77;99128.00;6232626;28;98495;-60
2020/12/01 12:44:46;;;;;;;;;23.00;20.00;;;;;19.87;18.53;99148.59;6233599;28;96709;-59
2020/12/01 12:47:47;;;;;;;;;24.40;20.00;;;;;19.40;18.93;99155.13;6231247;28;97633;-59
2020/12/01 12:50:49;;;;;;;;;25.40;21.00;;;;;18.79;19.85;99159.69;6227137;28;97012;-59
2020/12/01 12:53:50;;;;;;;;;25.00;23.40;;;;;18.28;20.30;99155.03;6226969;28;97131;-59
2020/12/01 12:56:52;;;;;;;;;26.80;25.20;;;;;17.86;20.86;99134.09;6228673;28;97146;-59
2020/12/01 12:59:53;;;;;;;;;28.00;26.50;;;;;17.79;21.13;99158.03;6230438;27;98357;-59
2020/12/01 13:02:55;;;;;;;;;27.60;25.20;;;;;17.50;21.69;99160.22;6232107;28;97100;-59
2020/12/01 13:05:57;;;;;;;;;27.00;24.00;;;;;17.29;21.92;99159.25;6235287;27;97730;-59
2020/12/01 13:08:58;;;;;;;;;27.80;25.20;;;;;16.99;22.06;99174.44;6222714;27;96452;-59
2020/12/01 13:12:00;;;;;;;;;25.60;23.60;;;;;16.89;21.99;99165.09;6219949;28;96524;-58
2020/12/01 13:15:02;;;;;;;;;25.60;23.00;;;;;16.52;22.63;99166.78;6227727;27;98218;-59
2020/12/01 13:18:04;;;;;;;;;29.40;27.00;;;;;16.18;23.29;99167.97;6230868;28;97730;-59
2020/12/01 13:21:05;;;;;;;;;27.20;24.60;;;;;15.82;23.41;99170.19;6228335;27;97497;-58
2020/12/01 13:24:07;;;;;;;;;26.20;22.80;;;;;15.82;23.53;99159.31;6252900;27;97206;-58
2020/12/01 13:27:08;;;;;;;;;24.00;22.60;;;;;15.42;23.78;99169.50;6226797;27;97028;-59
2020/12/01 13:30:14;;;;;;;;;27.00;24.00;;;;;15.07;24.26;99172.41;6237921;27;96588;-59
2020/12/01 13:33:15;;;;;;;;;26.40;23.20;;;;;14.72;24.64;99167.94;6232286;27;96884;-58
2020/12/01 13:36:21;;;;;;;;;26.40;24.00;;;;;14.42;25.11;99170.03;6232347;27;96709;-58
2020/12/01 13:39:23;;;;;;;;;23.00;20.50;;;;;14.09;25.10;99132.72;6232531;27;98482;-58
2020/12/01 13:42:24;;;;;;;;;26.80;23.60;;;;;14.35;25.39;99185.59;6231505;27;97825;-58
2020/12/01 13:45:26;;;;;;;;;29.40;26.40;;;;;14.35;25.37;99182.91;6230799;27;96993;-59
2020/12/01 13:48:27;;;;;;;;;30.40;27.40;;;;;13.95;25.87;99182.00;6256908;27;97437;-59
2020/12/01 13:51:31;;;;;;;;;25.40;23.20;;;;;13.70;26.42;99172.22;6256928;27;96921;-58
2020/12/01 13:54:33;;;;;;;;;29.00;26.00;;;;;13.42;26.89;99180.19;6243823;27;97421;-59
2020/12/01 13:57:34;;;;;;;;;28.00;24.00;;;;;13.38;26.91;99176.31;6236976;27;98457;-59
2020/12/01 14:00:36;;;;;;;;;24.40;22.40;;;;;13.36;26.80;99181.94;6238723;27;97103;-59
2020/12/01 14:03:38;;;;;;;;;29.20;25.40;;;;;12.92;26.96;99185.91;6228506;27;97718;-59
2020/12/01 14:06:40;;;;;;;;;30.00;28.40;;;;;12.84;27.60;99182.69;6261438;27;98440;-58
2020/12/01 14:09:41;;;;;;;;;25.50;24.50;;;;;12.42;28.02;99181.75;6260384;27;97326;-59
2020/12/01 14:12:42;;;;;;;;;25.00;22.00;;;;;12.08;28.22;99184.00;6260039;27;97498;-59
2020/12/01 14:15:44;;;;;;;;;30.50;28.75;;;;;11.76;28.90;99187.03;6259465;27;97304;-59
2020/12/01 14:18:45;;;;;;;;;28.20;25.20;;;;;11.57;29.33;99189.69;6259331;27;97108;-58
2020/12/01 14:21:47;;;;;;;;;28.40;27.20;;;;;11.32;29.59;99194.25;6234522;27;98666;-58
2020/12/01 14:24:50;;;;;;;;;30.00;25.40;;;;;11.16;29.57;99203.69;6233755;27;97240;-58
2020/12/01 14:27:51;;;;;;;;;26.00;24.00;;;;;11.01;30.03;99210.41;6211261;28;97938;-58
2020/12/01 14:30:53;;;;;;;;;29.00;27.20;;;;;10.88;30.28;99208.63;6222913;28;98488;-59
2020/12/01 14:33:55;;;;;;;;;32.40;27.00;;;;;10.82;30.45;99206.78;6237435;28;97543;-59
2020/12/01 14:36:56;;;;;;;;;30.40;27.40;;;;;10.72;30.91;99204.56;6237006;28;97388;-59
2020/12/01 14:39:58;;;;;;;;;31.60;27.60;;;;;10.68;31.19;99197.94;6236496;28;97162;-59
2020/12/01 14:43:05;;;;;;;;;31.67;26.67;;;;;10.57;31.66;99203.16;6237431;28;97182;-59
2020/12/01 14:46:19;;;;;;;;;29.00;26.25;;;;;10.20;32.23;99167.88;6237056;28;96656;-59
2020/12/01 14:49:26;;;;;;;;;30.40;27.00;;;;;10.22;32.72;99208.06;6232675;28;96900;-59
2020/12/01 14:52:40;;;;;;;;;29.60;27.60;;;;;10.09;32.58;99208.91;6223948;28;96942;-59
2020/12/01 14:55:58;;;;;;;;;33.00;27.60;;;;;10.05;32.82;99220.31;6214248;28;98483;-59
2020/12/01 14:59:21;;;;;;;;;28.00;26.50;;;;;9.96;33.63;99219.72;6212691;28;97455;-59